Time;durP1;ratioP1;P1;durP2;ratioP2;P2;SDS_P1;SDS_P2;PMS_P1;PMS_P2;Temp;Humidity;BMP_temperature;BMP_pressure;BME280_temperature;BME280_humidity;BME280_pressure;Samples;Min_cycle;Max_cycle;Signal;HPM_P1;HPM_P2
2023/02/05 00:01:17;;;;;;;7.40;4.50;;;2.50;99.90;;;;;;5114980;28;20380;-69
2023/02/05 00:03:43;;;;;;;7.70;5.17;;;2.50;99.90;;;;;;5114516;28;20403;-69
2023/02/05 00:06:09;;;;;;;7.27;4.50;;;2.40;99.90;;;;;;5106418;28;20469;-69
2023/02/05 00:08:34;;;;;;;6.77;4.60;;;2.20;99.90;;;;;;5100347;28;20392;-69
2023/02/05 00:11:08;;;;;;;8.80;4.80;;;2.40;99.90;;;;;;5114553;28;20816;-69
2023/02/05 00:13:36;;;;;;;7.40;4.40;;;2.50;99.90;;;;;;5114391;28;20383;-69
2023/02/05 00:16:12;;;;;;;6.43;4.10;;;2.50;99.90;;;;;;5114122;28;20388;-68
2023/02/05 00:18:38;;;;;;;7.07;4.03;;;2.40;99.90;;;;;;5114267;28;20392;-69
2023/02/05 00:21:05;;;;;;;7.60;4.30;;;2.50;99.90;;;;;;5114192;28;20944;-69
2023/02/05 00:23:31;;;;;;;7.25;4.53;;;2.50;99.90;;;;;;5114325;27;20416;-68
2023/02/05 00:25:56;;;;;;;7.80;3.80;;;2.60;99.90;;;;;;5113844;28;20458;-69
2023/02/05 00:28:22;;;;;;;8.43;4.60;;;2.60;99.90;;;;;;5114550;28;20376;-69
2023/02/05 00:30:47;;;;;;;5.17;3.93;;;2.50;99.90;;;;;;5114339;28;20380;-69
2023/02/05 00:33:13;;;;;;;5.00;4.20;;;2.40;99.90;;;;;;5114426;28;20372;-69
2023/02/05 00:35:41;;;;;;;8.50;4.17;;;2.40;99.90;;;;;;5112558;28;20899;-69
2023/02/05 00:38:07;;;;;;;5.78;3.60;;;2.30;99.90;;;;;;5114784;28;20375;-69
2023/02/05 00:40:32;;;;;;;7.93;4.10;;;2.30;99.90;;;;;;5114569;28;20404;-69
2023/02/05 00:42:58;;;;;;;4.87;3.57;;;2.30;99.90;;;;;;5114027;28;20448;-69
2023/02/05 00:45:24;;;;;;;5.97;3.90;;;2.30;99.90;;;;;;5113941;28;20382;-69
2023/02/05 00:47:49;;;;;;;7.30;4.00;;;2.00;99.90;;;;;;5113966;28;20832;-69
2023/02/05 00:50:15;;;;;;;6.47;4.10;;;2.30;99.90;;;;;;5113699;28;21015;-69
2023/02/05 00:52:41;;;;;;;6.40;3.90;;;2.30;99.90;;;;;;5113640;28;20458;-69
2023/02/05 00:55:07;;;;;;;7.15;3.78;;;2.10;99.90;;;;;;5113908;28;20460;-70
2023/02/05 00:57:32;;;;;;;4.30;3.67;;;2.40;99.90;;;;;;5111922;28;20788;-69
2023/02/05 00:59:58;;;;;;;4.60;3.30;;;2.00;99.90;;;;;;5113618;28;20430;-70
2023/02/05 01:02:24;;;;;;;3.67;3.30;;;2.00;99.90;;;;;;5113662;28;20416;-69
2023/02/05 01:04:50;;;;;;;6.63;3.90;;;1.90;99.90;;;;;;5113326;28;20411;-69
2023/02/05 01:07:20;;;;;;;6.43;3.80;;;1.90;99.90;;;;;;5113597;28;20405;-69
2023/02/05 01:09:45;;;;;;;7.53;4.30;;;1.90;99.90;;;;;;5112491;28;20426;-70
2023/02/05 01:12:13;;;;;;;6.20;3.50;;;1.80;99.90;;;;;;5113505;28;20769;-69
2023/02/05 01:14:39;;;;;;;6.90;4.03;;;2.30;99.90;;;;;;5113580;28;20495;-70
2023/02/05 01:17:05;;;;;;;5.93;3.30;;;1.00;99.90;;;;;;5112927;28;20483;-69
2023/02/05 01:19:33;;;;;;;6.00;3.80;;;1.70;99.90;;;;;;5112835;28;20495;-69
2023/02/05 01:21:58;;;;;;;6.47;3.90;;;1.50;99.90;;;;;;5113251;28;20941;-69
2023/02/05 01:24:24;;;;;;;6.40;3.80;;;1.60;99.90;;;;;;5113164;28;20433;-69
2023/02/05 01:26:50;;;;;;;5.90;3.90;;;1.70;99.90;;;;;;5113017;28;20503;-70
2023/02/05 01:29:16;;;;;;;7.00;3.50;;;1.80;99.90;;;;;;5113322;28;20884;-69
2023/02/05 01:31:41;;;;;;;7.50;4.10;;;1.80;99.90;;;;;;5113349;28;20893;-69
2023/02/05 01:34:06;;;;;;;6.40;3.50;;;1.70;99.90;;;;;;5112687;28;20388;-69
2023/02/05 01:36:32;;;;;;;9.17;4.03;;;1.70;99.90;;;;;;5112416;28;20400;-70
2023/02/05 01:38:58;;;;;;;8.60;3.80;;;1.70;99.90;;;;;;5112581;28;20400;-69
2023/02/05 01:41:24;;;;;;;6.20;4.00;;;1.20;99.90;;;;;;5112922;28;20376;-69
2023/02/05 01:44:24;;;;;;;6.28;4.15;;;1.60;99.90;;;;;;5112833;28;20924;-69
2023/02/05 01:46:54;;;;;;;6.00;3.97;;;1.60;99.90;;;;;;5112347;28;20432;-69
2023/02/05 01:49:39;;;;;;;4.68;3.60;;;1.60;99.90;;;;;;5112653;28;20415;-69
2023/02/05 01:52:10;;;;;;;6.65;3.95;;;1.60;99.90;;;;;;5112716;28;20470;-69
2023/02/05 01:54:40;;;;;;;8.63;4.30;;;1.50;99.90;;;;;;5112656;28;20906;-70
2023/02/05 01:57:11;;;;;;;4.97;3.47;;;1.50;99.90;;;;;;5112246;28;20865;-69
2023/02/05 01:59:39;;;;;;;5.22;3.40;;;1.50;99.90;;;;;;5112000;28;20447;-69
2023/02/05 02:02:06;;;;;;;6.50;3.70;;;1.50;99.90;;;;;;5112495;28;20880;-69
2023/02/05 02:04:39;;;;;;;5.55;3.88;;;1.30;99.90;;;;;;5112170;28;20476;-69
2023/02/05 02:07:07;;;;;;;6.97;3.50;;;1.50;99.90;;;;;;5111752;28;20388;-69
2023/02/05 02:09:34;;;;;;;5.03;3.00;;;1.50;99.90;;;;;;5112664;28;20392;-69
2023/02/05 02:11:59;;;;;;;6.53;2.90;;;1.40;99.90;;;;;;5112474;28;20408;-69
2023/02/05 02:14:26;;;;;;;6.70;3.10;;;1.40;99.90;;;;;;5112244;28;20380;-70
2023/02/05 02:16:52;;;;;;;7.80;3.50;;;1.20;99.90;;;;;;5112734;28;20946;-69
2023/02/05 02:19:30;;;;;;;4.22;3.40;;;1.40;99.90;;;;;;5112852;28;20491;-69
2023/02/05 02:22:16;;;;;;;5.30;3.70;;;1.40;99.90;;;;;;5111957;28;20852;-69
2023/02/05 02:24:47;;;;;;;5.03;3.22;;;1.30;99.90;;;;;;5112067;28;20413;-69
2023/02/05 02:27:39;;;;;;;6.03;3.33;;;1.40;99.90;;;;;;5111739;28;20380;-69
2023/02/05 02:30:26;;;;;;;5.07;3.05;;;1.40;99.90;;;;;;5111987;28;20419;-69
2023/02/05 02:33:16;;;;;;;7.13;3.55;;;1.40;99.90;;;;;;5111952;28;20397;-69
2023/02/05 02:35:53;;;;;;;5.20;3.20;;;1.40;99.90;;;;;;5102443;28;20915;-69
2023/02/05 02:38:42;;;;;;;6.03;3.25;;;1.30;99.90;;;;;;5111642;28;20427;-69
2023/02/05 02:41:21;;;;;;;5.30;2.90;;;1.30;99.90;;;;;;5111546;28;20796;-69
2023/02/05 02:44:05;;;;;;;6.55;3.35;;;1.40;99.90;;;;;;5111735;28;20376;-69
2023/02/05 02:46:41;;;;;;;6.32;3.40;;;1.50;99.90;;;;;;5111503;28;20415;-70
2023/02/05 02:49:13;;;;;;;5.93;3.50;;;1.20;99.90;;;;;;5111584;27;20391;-69
2023/02/05 02:51:41;;;;;;;7.25;3.30;;;1.20;99.90;;;;;;5111461;28;20817;-69
2023/02/05 02:54:11;;;;;;;6.38;3.40;;;1.20;99.90;;;;;;5110231;28;20399;-69
2023/02/05 02:56:39;;;;;;;6.37;3.80;;;1.10;99.90;;;;;;5110831;28;20754;-69
2023/02/05 02:59:09;;;;;;;8.00;3.35;;;1.10;99.90;;;;;;5110984;28;20407;-69
2023/02/05 03:01:38;;;;;;;9.50;4.00;;;1.10;99.90;;;;;;5111118;28;20901;-69
2023/02/05 03:04:09;;;;;;;5.70;3.40;;;1.10;99.90;;;;;;5111139;28;20529;-69
2023/02/05 03:06:38;;;;;;;6.95;2.85;;;1.10;99.90;;;;;;5123358;22;20429;-72
2023/02/05 03:09:14;;;;;;;6.68;2.85;;;1.10;99.90;;;;;;5070314;28;20395;-73
2023/02/05 03:11:40;;;;;;;5.90;3.03;;;1.00;99.90;;;;;;5070138;28;20388;-74
2023/02/05 03:14:05;;;;;;;5.00;3.22;;;0.90;99.90;;;;;;5070352;28;20418;-73
2023/02/05 03:16:31;;;;;;;6.00;3.05;;;1.00;99.90;;;;;;5066133;28;20464;-73
2023/02/05 03:18:57;;;;;;;3.25;2.72;;;1.10;99.90;;;;;;5049475;28;20405;-74
2023/02/05 03:21:31;;;;;;;6.70;3.00;;;1.10;99.90;;;;;;5050368;28;20377;-73
2023/02/05 03:23:57;;;;;;;6.47;3.50;;;1.10;99.90;;;;;;5050166;28;20399;-73
2023/02/05 03:26:31;;;;;;;8.47;3.10;;;1.10;99.90;;;;;;5049585;28;20477;-73
2023/02/05 03:29:01;;;;;;;4.97;3.40;;;1.10;99.90;;;;;;5050099;28;20428;-73
2023/02/05 03:32:03;;;;;;;5.75;3.13;;;1.00;99.90;;;;;;5050166;28;20905;-74
2023/02/05 03:34:44;;;;;;;6.00;3.03;;;1.10;99.90;;;;;;5050294;28;20472;-74
2023/02/05 03:37:35;;;;;;;5.47;3.20;;;0.90;99.90;;;;;;5049499;28;20376;-73
2023/02/05 03:40:22;;;;;;;6.65;2.80;;;1.10;99.90;;;;;;5049921;28;20401;-72
2023/02/05 03:43:05;;;;;;;4.78;2.90;;;1.00;99.90;;;;;;5050121;28;20913;-73
2023/02/05 03:45:54;;;;;;;5.97;3.10;;;1.00;99.90;;;;;;5049745;28;20381;-73
2023/02/05 03:48:22;;;;;;;6.05;2.90;;;1.10;99.90;;;;;;5041721;28;20422;-72
2023/02/05 03:50:48;;;;;;;6.13;2.80;;;1.00;99.90;;;;;;5049538;28;20798;-72
2023/02/05 03:53:20;;;;;;;6.17;3.00;;;1.00;99.90;;;;;;5050253;28;20385;-72
2023/02/05 03:55:54;;;;;;;7.85;2.80;;;0.90;99.90;;;;;;5049836;28;20831;-73
2023/02/05 03:58:29;;;;;;;4.00;3.00;;;0.90;99.90;;;;;;5049845;28;20799;-73
2023/02/05 04:00:55;;;;;;;4.35;3.10;;;0.90;99.90;;;;;;5049855;28;21086;-72
2023/02/05 04:03:21;;;;;;;7.10;3.00;;;0.90;99.90;;;;;;5049908;28;20381;-72
2023/02/05 04:05:47;;;;;;;6.03;3.50;;;0.90;99.90;;;;;;5054162;28;20407;-72
2023/02/05 04:08:13;;;;;;;5.10;3.10;;;0.50;99.90;;;;;;5069675;28;20457;-72
2023/02/05 04:10:38;;;;;;;5.53;2.80;;;0.90;99.90;;;;;;5069719;28;20407;-72
2023/02/05 04:13:04;;;;;;;5.00;2.90;;;0.80;99.90;;;;;;5069805;28;20392;-73
2023/02/05 04:15:29;;;;;;;4.67;3.10;;;0.80;99.90;;;;;;5065891;28;20429;-74
2023/02/05 04:17:56;;;;;;;7.90;3.33;;;0.80;99.90;;;;;;5049692;28;20377;-73
2023/02/05 04:20:22;;;;;;;5.78;3.17;;;0.80;99.90;;;;;;5047779;28;20438;-73
2023/02/05 04:22:48;;;;;;;5.00;3.10;;;0.90;99.90;;;;;;5049652;28;20381;-74
2023/02/05 04:25:13;;;;;;;4.03;3.17;;;0.90;99.90;;;;;;5049590;28;20374;-72
2023/02/05 04:27:39;;;;;;;5.60;3.17;;;0.80;99.90;;;;;;5049154;28;20388;-72
2023/02/05 04:30:05;;;;;;;7.45;2.90;;;1.00;99.90;;;;;;5049484;28;20411;-73
2023/02/05 04:32:31;;;;;;;3.03;2.63;;;0.90;99.90;;;;;;5049724;28;20385;-72
2023/02/05 04:34:57;;;;;;;3.60;2.70;;;0.80;99.90;;;;;;5049567;28;20409;-72
2023/02/05 04:37:23;;;;;;;5.70;3.20;;;0.90;99.90;;;;;;5049560;28;20786;-73
2023/02/05 04:39:49;;;;;;;6.65;2.90;;;1.00;99.90;;;;;;5048351;28;20944;-73
2023/02/05 04:42:15;;;;;;;5.75;3.08;;;1.00;99.90;;;;;;5049955;28;20385;-73
2023/02/05 04:44:41;;;;;;;3.80;2.90;;;0.90;99.90;;;;;;5051571;28;20404;-72
2023/02/05 04:47:06;;;;;;;9.90;3.07;;;0.90;99.90;;;;;;5052943;28;20487;-73
2023/02/05 04:49:32;;;;;;;5.50;3.00;;;0.90;99.90;;;;;;5053487;28;20397;-73
2023/02/05 04:51:58;;;;;;;5.00;3.30;;;1.00;99.90;;;;;;5053415;28;20369;-73
2023/02/05 04:54:23;;;;;;;3.30;2.67;;;1.10;99.90;;;;;;5053403;28;20386;-73
2023/02/05 04:56:49;;;;;;;4.80;2.50;;;1.10;99.90;;;;;;5052883;28;20385;-73
2023/02/05 04:59:14;;;;;;;6.37;2.60;;;1.00;99.90;;;;;;5053258;28;20401;-73
2023/02/05 05:01:40;;;;;;;5.50;2.73;;;1.20;99.90;;;;;;5052985;28;20397;-72
2023/02/05 05:04:05;;;;;;;7.93;3.27;;;1.30;99.90;;;;;;5053151;28;20435;-73
2023/02/05 05:06:31;;;;;;;5.83;2.73;;;1.50;99.90;;;;;;5052555;28;20472;-73
2023/02/05 05:08:57;;;;;;;3.80;2.30;;;1.50;99.90;;;;;;5053269;28;20426;-74
2023/02/05 05:11:22;;;;;;;5.60;2.70;;;1.60;99.90;;;;;;5052943;28;20388;-72
2023/02/05 05:13:48;;;;;;;6.30;2.83;;;1.60;99.90;;;;;;5053141;28;20392;-73
2023/02/05 05:16:14;;;;;;;5.40;2.70;;;1.50;99.90;;;;;;5052630;28;20751;-73
2023/02/05 05:18:40;;;;;;;6.33;3.10;;;1.50;99.90;;;;;;5052760;28;20464;-73
2023/02/05 05:21:05;;;;;;;6.63;2.53;;;1.60;99.90;;;;;;5052630;28;20480;-73
2023/02/05 05:23:32;;;;;;;5.18;2.83;;;1.30;99.90;;;;;;5052869;28;20381;-73
2023/02/05 05:25:57;;;;;;;3.53;2.40;;;1.60;99.90;;;;;;5052518;28;20390;-72
2023/02/05 05:28:23;;;;;;;6.85;2.92;;;1.60;99.90;;;;;;5052781;28;20412;-72
2023/02/05 05:30:49;;;;;;;3.63;2.70;;;1.60;99.90;;;;;;5052824;28;20761;-72
2023/02/05 05:33:15;;;;;;;3.92;2.63;;;1.40;99.90;;;;;;5052759;28;20400;-72
2023/02/05 05:35:40;;;;;;;5.22;2.80;;;1.60;99.90;;;;;;5051882;28;20457;-73
2023/02/05 05:38:07;;;;;;;6.07;3.27;;;1.60;99.90;;;;;;5051855;28;20389;-73
2023/02/05 05:46:04;;;;;;;7.03;2.92;;;1.80;99.90;;;;;;5052188;28;20430;-72
2023/02/05 05:48:30;;;;;;;6.25;3.30;;;1.70;99.90;;;;;;5052448;28;20879;-73
2023/02/05 05:50:56;;;;;;;8.10;4.00;;;1.80;99.90;;;;;;5052042;28;20389;-72
2023/02/05 05:53:21;;;;;;;5.70;2.93;;;1.80;99.90;;;;;;5051734;28;20913;-72
2023/02/05 05:55:47;;;;;;;5.27;2.23;;;1.80;99.90;;;;;;5051223;28;20736;-73
2023/02/05 05:58:13;;;;;;;7.23;3.10;;;1.80;99.90;;;;;;5052035;28;20432;-73
2023/02/05 06:00:39;;;;;;;5.80;3.20;;;1.90;99.90;;;;;;5052082;28;20440;-73
2023/02/05 06:03:06;;;;;;;5.80;2.95;;;1.90;99.90;;;;;;5052278;28;20385;-73
2023/02/05 06:05:32;;;;;;;6.70;2.70;;;2.00;99.90;;;;;;5051629;28;20396;-73
2023/02/05 06:07:58;;;;;;;4.50;2.80;;;1.90;99.90;;;;;;5052505;28;20393;-72
2023/02/05 06:10:24;;;;;;;6.95;2.90;;;2.00;99.90;;;;;;5052165;28;20455;-73
2023/02/05 06:12:51;;;;;;;7.10;2.83;;;1.90;99.90;;;;;;5052030;28;20392;-73
2023/02/05 06:15:18;;;;;;;6.38;2.90;;;1.80;99.90;;;;;;5051776;28;20385;-74
2023/02/05 06:17:43;;;;;;;4.65;2.70;;;2.00;99.90;;;;;;5051848;28;20386;-74
2023/02/05 06:20:11;;;;;;;5.87;2.90;;;2.20;99.90;;;;;;5051326;28;20406;-74
2023/02/05 06:22:36;;;;;;;5.15;2.83;;;1.80;99.90;;;;;;5051722;28;20381;-73
2023/02/05 06:25:03;;;;;;;5.67;3.03;;;1.60;99.90;;;;;;5050527;28;20452;-72
2023/02/05 06:27:29;;;;;;;3.85;2.88;;;1.90;99.90;;;;;;5050370;28;20374;-73
2023/02/05 06:29:54;;;;;;;5.50;2.90;;;2.00;99.90;;;;;;5051528;28;20839;-72
2023/02/05 06:32:21;;;;;;;5.07;2.80;;;1.90;99.90;;;;;;5051465;28;20481;-73
2023/02/05 06:34:46;;;;;;;8.07;3.28;;;2.00;99.90;;;;;;5050157;28;20382;-73
2023/02/05 06:37:12;;;;;;;4.23;2.80;;;2.20;99.90;;;;;;5051055;28;20381;-74
2023/02/05 06:39:38;;;;;;;4.00;2.57;;;2.20;99.90;;;;;;5051406;28;20470;-74
2023/02/05 06:42:03;;;;;;;4.67;2.70;;;2.20;99.90;;;;;;5050043;28;20374;-73
2023/02/05 06:44:29;;;;;;;5.13;2.70;;;2.20;99.90;;;;;;5051243;28;20393;-73
2023/02/05 06:46:54;;;;;;;5.22;3.15;;;2.10;99.90;;;;;;5050680;28;20401;-74
2023/02/05 06:49:20;;;;;;;5.35;3.00;;;2.10;99.90;;;;;;5051307;28;20466;-74
2023/02/05 06:51:46;;;;;;;4.57;2.50;;;2.10;99.90;;;;;;5051064;28;20909;-73
2023/02/05 06:54:11;;;;;;;6.07;3.10;;;2.10;99.90;;;;;;5051032;28;20482;-73
2023/02/05 06:56:37;;;;;;;3.85;2.55;;;2.10;99.90;;;;;;5050709;28;20740;-73
2023/02/05 06:59:03;;;;;;;5.90;2.90;;;2.10;99.90;;;;;;5051068;28;20397;-73
2023/02/05 07:01:28;;;;;;;3.85;2.60;;;2.30;99.90;;;;;;5050720;28;20424;-73
2023/02/05 07:03:55;;;;;;;3.73;2.30;;;2.20;99.90;;;;;;5050621;28;20397;-72
2023/02/05 07:06:22;;;;;;;4.75;2.65;;;2.20;99.90;;;;;;5049849;28;20923;-73
2023/02/05 07:08:48;;;;;;;5.30;2.60;;;2.30;99.90;;;;;;5050741;28;20920;-73
2023/02/05 07:11:14;;;;;;;4.53;3.25;;;1.90;99.90;;;;;;5051007;28;20393;-73
2023/02/05 07:13:40;;;;;;;4.40;2.70;;;2.30;99.90;;;;;;5051096;28;20378;-73
2023/02/05 07:16:05;;;;;;;5.80;2.60;;;2.50;99.90;;;;;;5051043;28;20373;-73
2023/02/05 07:18:32;;;;;;;3.92;2.60;;;2.40;99.90;;;;;;5049277;28;20827;-73
2023/02/05 07:20:58;;;;;;;4.47;2.50;;;2.20;99.90;;;;;;5051078;28;20377;-73
2023/02/05 07:23:24;;;;;;;4.90;2.67;;;2.20;99.90;;;;;;5050634;28;20438;-73
2023/02/05 07:25:49;;;;;;;5.00;2.73;;;2.30;99.90;;;;;;5050132;28;20389;-73
2023/02/05 07:28:15;;;;;;;8.03;2.90;;;2.40;99.90;;;;;;5050556;28;20373;-74
2023/02/05 07:30:40;;;;;;;3.40;3.07;;;2.60;99.90;;;;;;5050493;28;20386;-72
2023/02/05 07:33:06;;;;;;;5.90;3.30;;;2.60;99.90;;;;;;5050525;28;20381;-73
2023/02/05 07:35:35;;;;;;;5.67;3.07;;;2.60;99.90;;;;;;5050176;28;20413;-73
2023/02/05 07:38:00;;;;;;;6.57;2.70;;;2.70;99.90;;;;;;5050393;28;20404;-72
2023/02/05 07:40:26;;;;;;;2.90;2.45;;;2.80;99.90;;;;;;5049779;28;20875;-73
2023/02/05 07:42:51;;;;;;;5.30;2.90;;;3.00;99.90;;;;;;5050217;28;20388;-73
2023/02/05 07:45:17;;;;;;;5.50;3.63;;;2.90;99.90;;;;;;5050930;28;20442;-74
2023/02/05 07:47:43;;;;;;;6.03;3.03;;;2.90;99.90;;;;;;5049859;28;20377;-74
2023/02/05 07:50:08;;;;;;;6.53;3.23;;;3.00;99.90;;;;;;5050321;28;20425;-74
2023/02/05 07:52:34;;;;;;;8.88;3.90;;;3.00;99.90;;;;;;5050201;28;20826;-74
2023/02/05 07:54:59;;;;;;;4.50;3.60;;;2.80;99.90;;;;;;5050454;28;20385;-75
2023/02/05 07:57:27;;;;;;;5.70;3.30;;;2.90;99.90;;;;;;5051121;28;20385;-75
2023/02/05 07:59:53;;;;;;;5.30;3.58;;;2.90;99.90;;;;;;5062435;28;20397;-75
2023/02/05 08:02:18;;;;;;;6.20;3.70;;;2.80;99.90;;;;;;5063758;28;20752;-73
2023/02/05 08:04:44;;;;;;;6.73;4.27;;;2.80;99.90;;;;;;5061193;28;20381;-76
2023/02/05 08:07:13;;;;;;;5.50;4.10;;;2.80;99.90;;;;;;5065919;28;20406;-72
2023/02/05 08:09:39;;;;;;;7.22;4.28;;;2.80;99.90;;;;;;5070460;28;20402;-73
2023/02/05 08:12:05;;;;;;;7.50;4.20;;;2.80;99.90;;;;;;5059873;28;20397;-73
2023/02/05 08:14:30;;;;;;;8.75;4.53;;;2.90;99.90;;;;;;5049845;28;20412;-73
2023/02/05 08:16:57;;;;;;;6.50;4.00;;;2.80;99.90;;;;;;5049821;28;20438;-72
2023/02/05 08:19:23;;;;;;;5.90;4.10;;;2.90;99.90;;;;;;5053039;28;20894;-74
2023/02/05 08:21:49;;;;;;;6.32;4.00;;;2.90;99.90;;;;;;5054110;28;20388;-74
2023/02/05 08:24:15;;;;;;;6.90;4.10;;;3.10;99.90;;;;;;5053372;28;20385;-73
2023/02/05 08:26:40;;;;;;;7.23;3.90;;;3.10;99.90;;;;;;5053617;28;20472;-72
2023/02/05 08:29:09;;;;;;;6.93;3.40;;;3.10;99.90;;;;;;5053733;28;20392;-72
2023/02/05 08:31:35;;;;;;;4.38;3.25;;;3.30;99.90;;;;;;5053787;28;20470;-72
2023/02/05 08:34:01;;;;;;;7.60;3.60;;;3.10;99.90;;;;;;5053763;28;20389;-72
2023/02/05 08:36:27;;;;;;;4.10;3.10;;;2.90;99.90;;;;;;5053593;28;20412;-72
2023/02/05 08:38:53;;;;;;;9.07;3.97;;;3.00;99.90;;;;;;5053880;28;20567;-74
2023/02/05 08:41:19;;;;;;;5.70;4.00;;;3.20;99.90;;;;;;5053598;28;21081;-71
2023/02/05 08:43:47;;;;;;;5.93;4.30;;;3.30;99.90;;;;;;5053043;28;20530;-71
2023/02/05 08:46:19;;;;;;;8.47;5.97;;;3.30;99.90;;;;;;5053063;28;20825;-73
2023/02/05 08:48:48;;;;;;;9.38;6.60;;;3.20;99.90;;;;;;5053579;28;20384;-73
2023/02/05 08:51:15;;;;;;;12.10;8.18;;;3.40;99.90;;;;;;5051853;28;20373;-72
2023/02/05 08:53:40;;;;;;;10.15;7.88;;;3.40;99.90;;;;;;5053240;28;20466;-73
2023/02/05 08:56:09;;;;;;;12.90;8.80;;;3.40;99.90;;;;;;5052699;28;20417;-74
2023/02/05 08:58:35;;;;;;;11.02;9.18;;;3.20;99.90;;;;;;5053234;28;20815;-72
2023/02/05 09:01:03;;;;;;;11.68;9.57;;;3.10;99.90;;;;;;5053229;28;20400;-73
2023/02/05 09:03:29;;;;;;;12.60;8.90;;;3.30;99.90;;;;;;5053074;28;20409;-72
2023/02/05 09:05:56;;;;;;;13.10;8.68;;;3.20;99.90;;;;;;5058605;28;20394;-73
2023/02/05 09:08:23;;;;;;;11.60;8.73;;;3.20;99.90;;;;;;5077120;22;20440;-70
2023/02/05 09:10:48;;;;;;;13.73;9.00;;;3.30;99.90;;;;;;5053294;28;20381;-69
2023/02/05 09:13:14;;;;;;;11.27;8.50;;;3.50;99.90;;;;;;5053097;28;20393;-69
2023/02/05 09:15:44;;;;;;;12.40;7.20;;;3.50;99.90;;;;;;5052620;28;20405;-68
2023/02/05 09:18:09;;;;;;;8.90;6.10;;;3.50;99.90;;;;;;5053396;28;20381;-69
2023/02/05 09:20:48;;;;;;;8.68;5.30;;;3.40;99.90;;;;;;5053013;28;20783;-68
2023/02/05 09:23:15;;;;;;;7.15;4.20;;;3.30;99.90;;;;;;5052798;28;20466;-68
2023/02/05 09:25:42;;;;;;;7.30;3.90;;;3.80;99.90;;;;;;5052786;28;20752;-68
2023/02/05 09:28:09;;;;;;;5.00;4.25;;;3.70;99.90;;;;;;5052749;28;20385;-69
2023/02/05 09:30:39;;;;;;;6.80;4.35;;;3.60;99.90;;;;;;5043320;28;20405;-69
2023/02/05 09:33:05;;;;;;;6.15;4.45;;;3.60;99.90;;;;;;5052813;28;20897;-69
2023/02/05 09:35:32;;;;;;;6.72;4.75;;;3.80;99.90;;;;;;5052606;28;20393;-69
2023/02/05 09:37:58;;;;;;;6.37;5.03;;;3.80;99.90;;;;;;5052794;28;20898;-69
2023/02/05 09:40:28;;;;;;;7.70;5.10;;;3.90;99.90;;;;;;5052767;28;21129;-70
2023/02/05 09:43:15;;;;;;;7.43;5.53;;;3.90;99.90;;;;;;5052669;28;20386;-69
2023/02/05 09:45:54;;;;;;;8.38;6.13;;;4.10;99.90;;;;;;5050231;28;20801;-70
2023/02/05 09:48:31;;;;;;;7.90;5.00;;;4.00;99.90;;;;;;5051559;28;20385;-70
2023/02/05 09:50:58;;;;;;;6.80;4.90;;;3.90;99.90;;;;;;5052471;28;20885;-70
2023/02/05 09:53:26;;;;;;;7.38;5.85;;;3.90;99.90;;;;;;5052574;28;20389;-69
2023/02/05 09:55:52;;;;;;;7.65;6.10;;;3.90;99.90;;;;;;5052116;28;20396;-69
2023/02/05 09:58:24;;;;;;;8.13;5.60;;;3.90;99.90;;;;;;5052307;28;20438;-69
2023/02/05 10:01:08;;;;;;;9.60;5.63;;;5.50;99.90;;;;;;5039847;28;20399;-69
2023/02/05 10:03:43;;;;;;;8.52;5.85;;;3.90;99.90;;;;;;5032457;28;20446;-69
2023/02/05 10:06:08;;;;;;;8.20;5.70;;;4.30;99.90;;;;;;5039923;28;20901;-69
2023/02/05 10:08:51;;;;;;;10.27;6.70;;;3.80;99.90;;;;;;5051894;28;20398;-70
2023/02/05 10:11:32;;;;;;;9.73;6.60;;;3.90;99.90;;;;;;5051998;28;20862;-69
2023/02/05 10:14:18;;;;;;;7.45;6.43;;;4.10;99.90;;;;;;5051921;28;20378;-70
2023/02/05 10:17:18;;;;;;;10.27;6.75;;;4.10;99.90;;;;;;5037501;28;20394;-69
2023/02/05 10:19:51;;;;;;;8.63;6.63;;;3.90;99.90;;;;;;5051137;28;20408;-70
2023/02/05 10:22:38;;;;;;;9.40;5.97;;;3.80;99.90;;;;;;5050043;28;20882;-70
2023/02/05 10:25:48;;;;;;;7.95;5.90;;;4.00;99.90;;;;;;5031929;28;20383;-70
2023/02/05 10:28:43;;;;;;;7.88;6.00;;;3.80;99.90;;;;;;5031974;28;20429;-69
2023/02/05 10:31:22;;;;;;;6.93;5.00;;;3.90;99.90;;;;;;5047502;28;20389;-68
2023/02/05 10:33:48;;;;;;;6.35;5.47;;;3.80;99.90;;;;;;5051634;28;20771;-68
2023/02/05 10:36:18;;;;;;;8.00;5.85;;;3.90;99.90;;;;;;5031823;28;20450;-69
2023/02/05 10:38:45;;;;;;;7.25;5.60;;;4.10;99.90;;;;;;5031560;28;20383;-68
2023/02/05 10:41:37;;;;;;;12.98;7.57;;;4.20;99.90;;;;;;5031473;28;20410;-69
2023/02/05 10:44:12;;;;;;;8.73;6.50;;;4.10;99.90;;;;;;5031516;28;20415;-69
2023/02/05 10:46:39;;;;;;;10.63;6.90;;;4.20;99.90;;;;;;5031021;28;20441;-69
2023/02/05 10:49:46;;;;;;;7.95;6.50;;;3.70;99.90;;;;;;5049045;28;20393;-70
2023/02/05 10:52:13;;;;;;;11.35;7.18;;;4.00;99.90;;;;;;5009234;28;20401;-70
2023/02/05 10:54:40;;;;;;;9.10;6.53;;;4.10;99.90;;;;;;5037940;28;20407;-70
2023/02/05 10:57:15;;;;;;;9.38;6.70;;;4.20;99.90;;;;;;5012862;28;20403;-70
2023/02/05 10:59:52;;;;;;;9.25;6.75;;;4.20;99.90;;;;;;5029273;28;20999;-69
2023/02/05 11:02:19;;;;;;;8.60;6.30;;;4.20;99.90;;;;;;5035277;28;20411;-69
2023/02/05 11:04:55;;;;;;;9.23;6.60;;;4.00;99.90;;;;;;5031309;28;20788;-69
2023/02/05 11:07:27;;;;;;;11.32;8.18;;;4.30;99.90;;;;;;5044608;28;20432;-69
2023/02/05 11:09:53;;;;;;;10.88;7.53;;;4.10;99.90;;;;;;5030995;28;20410;-69
2023/02/05 11:12:29;;;;;;;9.40;7.07;;;4.20;99.90;;;;;;5030852;28;20399;-68
2023/02/05 11:15:01;;;;;;;11.50;7.70;;;4.00;99.90;;;;;;5030900;28;20379;-69
2023/02/05 11:17:33;;;;;;;10.10;7.78;;;4.10;99.90;;;;;;5030426;28;20387;-69
2023/02/05 11:20:05;;;;;;;11.00;8.07;;;4.10;99.90;;;;;;5030507;28;20410;-69
2023/02/05 11:22:34;;;;;;;11.43;6.90;;;4.10;99.90;;;;;;5041005;28;20400;-69
2023/02/05 11:25:25;;;;;;;10.27;6.40;;;4.20;99.90;;;;;;5048962;28;20385;-69
2023/02/05 11:27:53;;;;;;;9.53;6.90;;;4.10;99.90;;;;;;5030491;28;20888;-69
2023/02/05 11:30:25;;;;;;;10.75;6.50;;;4.30;99.90;;;;;;5030447;28;20383;-69
2023/02/05 11:32:51;;;;;;;12.70;7.60;;;4.40;99.90;;;;;;5030914;28;20868;-70
2023/02/05 11:35:19;;;;;;;8.55;7.38;;;4.50;99.90;;;;;;5030659;28;20391;-70
2023/02/05 11:37:48;;;;;;;9.15;6.30;;;4.70;99.90;;;;;;5030377;28;20379;-70
2023/02/05 11:40:29;;;;;;;9.88;6.85;;;4.80;99.90;;;;;;5038231;28;20411;-70
2023/02/05 11:43:32;;;;;;;9.18;7.57;;;4.80;99.90;;;;;;5030578;28;20399;-67
2023/02/05 11:46:00;;;;;;;10.07;7.45;;;4.80;99.90;;;;;;5008757;28;20391;-69
2023/02/05 11:48:43;;;;;;;11.38;7.85;;;4.70;99.90;;;;;;5030558;28;20387;-70
2023/02/05 11:51:14;;;;;;;12.05;7.50;;;4.80;99.90;;;;;;5029279;28;20398;-70
2023/02/05 11:53:54;;;;;;;10.20;7.20;;;4.70;99.90;;;;;;5028050;28;20454;-68
2023/02/05 11:56:23;;;;;;;12.70;7.57;;;4.70;99.90;;;;;;5030053;28;20395;-69
2023/02/05 11:59:04;;;;;;;11.52;7.35;;;4.60;99.90;;;;;;5030371;28;20393;-68
2023/02/05 12:01:32;;;;;;;10.70;7.22;;;4.70;99.90;;;;;;5024582;28;20394;-68
2023/02/05 12:04:13;;;;;;;10.95;7.20;;;4.50;99.90;;;;;;5050268;28;20841;-68
2023/02/05 12:06:55;;;;;;;8.60;6.80;;;4.30;99.90;;;;;;5049458;28;20428;-69
2023/02/05 12:09:23;;;;;;;10.27;7.13;;;4.40;99.90;;;;;;5050153;28;20381;-68
2023/02/05 12:12:10;;;;;;;11.32;7.15;;;4.30;99.90;;;;;;5049967;28;20763;-69
2023/02/05 12:15:02;;;;;;;10.43;7.07;;;4.50;99.90;;;;;;5050264;28;20374;-69
2023/02/05 12:17:56;;;;;;;9.40;7.10;;;4.60;99.90;;;;;;5010247;28;20389;-69
2023/02/05 12:20:27;;;;;;;9.13;7.35;;;4.60;99.90;;;;;;5048744;28;20401;-69
2023/02/05 12:23:23;;;;;;;8.70;7.28;;;4.50;99.90;;;;;;5050124;28;20381;-69
2023/02/05 12:26:16;;;;;;;9.20;6.85;;;4.50;99.90;;;;;;5049546;28;20786;-69
2023/02/05 12:29:09;;;;;;;10.70;6.93;;;4.50;99.90;;;;;;5049701;28;20373;-69
2023/02/05 12:31:48;;;;;;;9.95;7.35;;;4.70;99.90;;;;;;5049781;28;20464;-69
2023/02/05 12:34:23;;;;;;;9.52;7.50;;;4.60;99.90;;;;;;5035308;28;20449;-69
2023/02/05 12:37:02;;;;;;;9.18;7.60;;;4.40;99.90;;;;;;5042886;28;20386;-69
2023/02/05 12:40:03;;;;;;;9.32;7.28;;;4.40;99.90;;;;;;5049402;28;20463;-69
2023/02/05 12:42:36;;;;;;;11.35;8.30;;;4.80;99.90;;;;;;5014401;28;20397;-69
2023/02/05 12:45:46;;;;;;;9.10;7.18;;;4.90;99.90;;;;;;5049791;28;20391;-69
2023/02/05 12:48:31;;;;;;;11.00;7.60;;;4.60;99.90;;;;;;5047471;28;20382;-69
2023/02/05 12:51:17;;;;;;;11.30;8.10;;;4.60;99.90;;;;;;5044216;28;20423;-69
2023/02/05 12:53:58;;;;;;;10.63;7.60;;;4.60;99.90;;;;;;5049655;28;20388;-69
2023/02/05 12:56:35;;;;;;;8.60;6.82;;;4.60;99.90;;;;;;5048375;28;20856;-68
2023/02/05 12:59:14;;;;;;;10.27;7.35;;;4.80;99.90;;;;;;5036539;28;20393;-68
2023/02/05 13:01:58;;;;;;;11.63;7.93;;;4.90;99.90;;;;;;5049754;28;20477;-69
2023/02/05 13:04:45;;;;;;;9.18;7.43;;;4.90;99.90;;;;;;5049649;28;20369;-69
2023/02/05 13:07:28;;;;;;;9.05;7.68;;;5.00;99.90;;;;;;5052693;28;20440;-69
2023/02/05 13:10:27;;;;;;;7.53;6.82;;;4.90;99.90;;;;;;5052495;28;20401;-69
2023/02/05 13:12:57;;;;;;;11.30;7.00;;;5.00;99.90;;;;;;5037004;28;20397;-68
2023/02/05 13:15:40;;;;;;;7.68;6.88;;;4.90;99.90;;;;;;5052959;28;20389;-69
2023/02/05 13:18:16;;;;;;;10.15;7.20;;;4.80;99.90;;;;;;5052598;28;20385;-70
2023/02/05 13:29:57;;;;;;;8.75;6.20;;;4.90;99.90;;;;;;5032973;28;20387;-67